USTS Kennedy — KVMU — position and weather

sailwx.info

Track history (hours):
 
Tides and Currents Weather Stations Pressure Air Temp Water Temp Dewpoint Dewpoint Depression Visibility Wind Speed Wind Dir Waves Ship Positions

USTS Kennedy (United States)

Training ship of Massachusetts Maritime Academy. Ex Cape Bon, ex Velma Lykes, ex Enterprise.

Ship's website: http://www.maritime.edu/

Owner: Massachusetts Maritime Academy, Buzzards Bay, MA. More information available from US FCC via Universal Licensing System and Coast Guard Vessel Documentation Center.

Last reported at 2014-Aug-28 14:33 UTC. Time now 2014-Nov-24 01:26 UTC.
Position N 41°48' W 070°28'.
Warning: this ship's position is months out of date.

Type: Passenger vessel. MMSI: 338919000.

Date/timePositionNaut miles runAvg speedWind from/ knotsBaromVisibWave heightAir tempDewpointWater temp
2014-Aug-28 14:33N 41°48' W 070°28'7 6.8
2014-Aug-28 13:28N 41°45' W 070°37'8 8.8
2014-Aug-28 12:33N 41°38' W 070°42'6 6.0
2014-Aug-28 11:33N 41°33' W 070°46'6 6.5
2014-Aug-28 10:33N 41°29' W 070°54'7 7.4
2014-Aug-28 09:33N 41°25' W 071°02'8 8.2
2014-Aug-28 08:33N 41°18' W 071°07'8 8.3
2014-Aug-28 07:33N 41°10' W 071°11'7 7.5
2014-Aug-28 06:33N 41°16' W 071°05'1 1.0
2014-Aug-28 05:33N 41°15' W 071°04'8 7.9
2014-Aug-28 04:33N 41°09' W 071°11'7 6.9
2014-Aug-28 03:33N 41°08' W 071°20'9 8.7
2014-Aug-28 02:33N 41°01' W 071°27'7 7.4
2014-Aug-28 01:33N 41°03' W 071°37'7 6.7
2014-Aug-28 00:33N 41°08' W 071°42'8 8.3
2014-Aug-27 23:33N 41°11' W 071°52'1312.6
2014-Aug-27 22:33N 41°14' W 072°08'1717.0
2014-Aug-27 21:33N 41°10' W 072°30'1615.9
2014-Aug-27 20:33N 41°05' W 072°50'1615.6
2014-Aug-27 19:33N 41°02' W 073°11'1515.0
2014-Aug-27 18:33N 40°58' W 073°30'1110.6
2014-Aug-27 17:32N 40°53' W 073°43'7 7.6
2014-Aug-27 16:33N 40°48' W 073°50'9 8.5
2014-Aug-27 15:34N 40°43' W 073°58'8 7.5
2014-Aug-27 14:33N 40°36' W 074°02'1212.1
2014-Aug-27 13:33N 40°28' W 073°50'5 5.2
2014-Aug-27 12:33N 40°27' W 073°44'7 7.2
2014-Aug-27 11:33N 40°28' W 073°34'7 7.3
2014-Aug-27 10:33N 40°28' W 073°25'7 7.3
2014-Aug-27 09:33N 40°29' W 073°15'7 7.5
2014-Aug-27 08:33N 40°30' W 073°05'8 8.1
2014-Aug-27 07:34N 40°32' W 072°55'8 7.7
2014-Aug-27 06:33N 40°34' W 072°46'7 7.0
2014-Aug-27 05:33N 40°37' W 072°37'7 6.9
2014-Aug-27 04:33N 40°40' W 072°29'7 7.0
2014-Aug-27 03:34N 40°43' W 072°21'7 6.8
2014-Aug-27 02:33N 40°46' W 072°12'6 6.4
2014-Aug-27 01:33N 40°49' W 072°05'9 8.8
2014-Aug-27 00:33N 40°52' W 071°54'5 5.4
2014-Aug-26 23:34N 40°54' W 071°47'7 7.1
2014-Aug-26 22:33N 40°57' W 071°39'8 8.0
2014-Aug-26 21:33N 41°01' W 071°30'8 8.4
2014-Aug-26 20:33N 41°08' W 071°23'8 8.2
2014-Aug-26 19:33N 41°15' W 071°16'8 8.2
2014-Aug-26 18:33N 41°21' W 071°10'10 9.8
2014-Aug-26 17:33N 41°27' W 070°59'1312.9
2014-Aug-26 16:33N 41°34' W 070°45'10 9.8
2014-Aug-26 15:33N 41°43' W 070°39'2 2.0
2014-Aug-26 14:31N 41°44' W 070°38'0 0.0
2014-Aug-26 13:18N 41°44' W 070°38'0 0.0
2014-Aug-26 12:33N 41°44' W 070°38'0 0.0
2014-Aug-26 11:33N 41°44' W 070°38'0 0.0
2014-Aug-26 10:33N 41°44' W 070°38'0 0.0
2014-Aug-26 09:34N 41°44' W 070°38'0 0.0
2014-Aug-26 08:34N 41°44' W 070°38'0 0.0
2014-Aug-26 07:33N 41°44' W 070°38'0 0.0
2014-Aug-26 05:33N 41°44' W 070°38'0 0.0
2014-Aug-26 04:32N 41°44' W 070°38'0 0.0
2014-Aug-26 03:34N 41°44' W 070°38'0 0.0
2014-Aug-26 02:15N 41°44' W 070°38'0 0.0
2014-Aug-26 01:33N 41°44' W 070°38'0 0.0
2014-Aug-26 00:33N 41°44' W 070°38'0 0.0
2014-Aug-25 23:33N 41°44' W 070°38'  
2014-Aug-22 12:11N 41°44' W 070°38'0 0.0
2014-Aug-22 11:26N 41°44' W 070°38'0 0.0
2014-Aug-22 05:29N 41°44' W 070°38'0 0.0
2014-Aug-22 04:32N 41°44' W 070°38'0 0.0
2014-Aug-22 03:32N 41°44' W 070°38'0 0.0
2014-Aug-22 02:32N 41°44' W 070°38'0 0.0
2014-Aug-22 01:32N 41°44' W 070°38'0 0.0
2014-Aug-21 09:32N 41°44' W 070°38'0 0.0
2014-Aug-21 07:23N 41°44' W 070°38'0 0.0
2014-Aug-21 06:29N 41°44' W 070°38'0 0.0
2014-Aug-21 05:26N 41°44' W 070°38'0 0.0
2014-Aug-21 04:32N 41°44' W 070°38'0 0.0
2014-Aug-21 03:32N 41°44' W 070°38'0 0.0
2014-Aug-21 02:20N 41°44' W 070°38'0 0.0
2014-Aug-21 01:32N 41°44' W 070°38'0 0.0
2014-Aug-21 00:32N 41°44' W 070°38'0 0.0
2014-Aug-20 23:08N 41°44' W 070°38'  
Track history (hours):
 
Tides and Currents Weather Stations Pressure Air Temp Water Temp Dewpoint Dewpoint Depression Visibility Wind Speed Wind Dir Waves Ship Positions

USTS Kennedy (United States)

Training ship of Massachusetts Maritime Academy. Ex Cape Bon, ex Velma Lykes, ex Enterprise.

Ship's website: http://www.maritime.edu/

Owner: Massachusetts Maritime Academy, Buzzards Bay, MA. More information available from US FCC via Universal Licensing System and Coast Guard Vessel Documentation Center.

Last reported at 2014-Aug-28 14:33 UTC. Time now 2014-Nov-24 01:26 UTC.
Position N 41°48' W 070°28'.
Warning: this ship's position is months out of date.

Type: Passenger vessel. MMSI: 338919000.

Date/timePositionNaut miles runAvg speedWind from/ knotsBaromVisibWave heightAir tempDewpointWater temp
2014-Aug-28 14:33N 41°48' W 070°28'7 6.8
2014-Aug-28 13:28N 41°45' W 070°37'8 8.8
2014-Aug-28 12:33N 41°38' W 070°42'6 6.0
2014-Aug-28 11:33N 41°33' W 070°46'6 6.5
2014-Aug-28 10:33N 41°29' W 070°54'7 7.4
2014-Aug-28 09:33N 41°25' W 071°02'8 8.2
2014-Aug-28 08:33N 41°18' W 071°07'8 8.3
2014-Aug-28 07:33N 41°10' W 071°11'7 7.5
2014-Aug-28 06:33N 41°16' W 071°05'1 1.0
2014-Aug-28 05:33N 41°15' W 071°04'8 7.9
2014-Aug-28 04:33N 41°09' W 071°11'7 6.9
2014-Aug-28 03:33N 41°08' W 071°20'9 8.7
2014-Aug-28 02:33N 41°01' W 071°27'7 7.4
2014-Aug-28 01:33N 41°03' W 071°37'7 6.7
2014-Aug-28 00:33N 41°08' W 071°42'8 8.3
2014-Aug-27 23:33N 41°11' W 071°52'1312.6
2014-Aug-27 22:33N 41°14' W 072°08'1717.0
2014-Aug-27 21:33N 41°10' W 072°30'1615.9
2014-Aug-27 20:33N 41°05' W 072°50'1615.6
2014-Aug-27 19:33N 41°02' W 073°11'1515.0
2014-Aug-27 18:33N 40°58' W 073°30'1110.6
2014-Aug-27 17:32N 40°53' W 073°43'7 7.6
2014-Aug-27 16:33N 40°48' W 073°50'9 8.5
2014-Aug-27 15:34N 40°43' W 073°58'8 7.5
2014-Aug-27 14:33N 40°36' W 074°02'1212.1
2014-Aug-27 13:33N 40°28' W 073°50'5 5.2
2014-Aug-27 12:33N 40°27' W 073°44'7 7.2
2014-Aug-27 11:33N 40°28' W 073°34'7 7.3
2014-Aug-27 10:33N 40°28' W 073°25'7 7.3
2014-Aug-27 09:33N 40°29' W 073°15'7 7.5
2014-Aug-27 08:33N 40°30' W 073°05'8 8.1
2014-Aug-27 07:34N 40°32' W 072°55'8 7.7
2014-Aug-27 06:33N 40°34' W 072°46'7 7.0
2014-Aug-27 05:33N 40°37' W 072°37'7 6.9
2014-Aug-27 04:33N 40°40' W 072°29'7 7.0
2014-Aug-27 03:34N 40°43' W 072°21'7 6.8
2014-Aug-27 02:33N 40°46' W 072°12'6 6.4
2014-Aug-27 01:33N 40°49' W 072°05'9 8.8
2014-Aug-27 00:33N 40°52' W 071°54'5 5.4
2014-Aug-26 23:34N 40°54' W 071°47'7 7.1
2014-Aug-26 22:33N 40°57' W 071°39'8 8.0
2014-Aug-26 21:33N 41°01' W 071°30'8 8.4
2014-Aug-26 20:33N 41°08' W 071°23'8 8.2
2014-Aug-26 19:33N 41°15' W 071°16'8 8.2
2014-Aug-26 18:33N 41°21' W 071°10'10 9.8
2014-Aug-26 17:33N 41°27' W 070°59'1312.9
2014-Aug-26 16:33N 41°34' W 070°45'10 9.8
2014-Aug-26 15:33N 41°43' W 070°39'2 2.0
2014-Aug-26 14:31N 41°44' W 070°38'0 0.0
2014-Aug-26 13:18N 41°44' W 070°38'0 0.0
2014-Aug-26 12:33N 41°44' W 070°38'0 0.0
2014-Aug-26 11:33N 41°44' W 070°38'0 0.0
2014-Aug-26 10:33N 41°44' W 070°38'0 0.0
2014-Aug-26 09:34N 41°44' W 070°38'0 0.0
2014-Aug-26 08:34N 41°44' W 070°38'0 0.0
2014-Aug-26 07:33N 41°44' W 070°38'0 0.0
2014-Aug-26 05:33N 41°44' W 070°38'0 0.0
2014-Aug-26 04:32N 41°44' W 070°38'0 0.0
2014-Aug-26 03:34N 41°44' W 070°38'0 0.0
2014-Aug-26 02:15N 41°44' W 070°38'0 0.0
2014-Aug-26 01:33N 41°44' W 070°38'0 0.0
2014-Aug-26 00:33N 41°44' W 070°38'0 0.0
2014-Aug-25 23:33N 41°44' W 070°38'  
2014-Aug-22 12:11N 41°44' W 070°38'0 0.0
2014-Aug-22 11:26N 41°44' W 070°38'0 0.0
2014-Aug-22 05:29N 41°44' W 070°38'0 0.0
2014-Aug-22 04:32N 41°44' W 070°38'0 0.0
2014-Aug-22 03:32N 41°44' W 070°38'0 0.0
2014-Aug-22 02:32N 41°44' W 070°38'0 0.0
2014-Aug-22 01:32N 41°44' W 070°38'0 0.0
2014-Aug-21 09:32N 41°44' W 070°38'0 0.0
2014-Aug-21 07:23N 41°44' W 070°38'0 0.0
2014-Aug-21 06:29N 41°44' W 070°38'0 0.0
2014-Aug-21 05:26N 41°44' W 070°38'0 0.0
2014-Aug-21 04:32N 41°44' W 070°38'0 0.0
2014-Aug-21 03:32N 41°44' W 070°38'0 0.0
2014-Aug-21 02:20N 41°44' W 070°38'0 0.0
2014-Aug-21 01:32N 41°44' W 070°38'0 0.0
2014-Aug-21 00:32N 41°44' W 070°38'0 0.0
2014-Aug-20 23:08N 41°44' W 070°38'  

Dump ship's entire track history